createdAt,value
2023-01-13T00:01:29.909Z,13.27
2023-01-13T00:03:58.167Z,12.93
2023-01-13T00:06:26.526Z,12.90
2023-01-13T00:08:55.465Z,13.07
2023-01-13T00:11:24.503Z,14.52
2023-01-13T00:13:52.747Z,14.00
2023-01-13T00:16:21.839Z,14.23
2023-01-13T00:18:53.266Z,14.15
2023-01-13T00:21:24.264Z,14.20
2023-01-13T00:23:54.670Z,13.15
2023-01-13T00:26:25.059Z,15.65
2023-01-13T00:28:58.738Z,14.23
2023-01-13T00:31:28.376Z,14.48
2023-01-13T00:34:01.391Z,13.10
2023-01-13T00:36:30.803Z,13.18
2023-01-13T00:39:00.968Z,12.70
2023-01-13T00:41:49.439Z,13.98
2023-01-13T00:44:17.738Z,13.95
2023-01-13T00:46:45.952Z,16.38
2023-01-13T00:49:14.209Z,17.30
2023-01-13T00:51:42.386Z,19.13
2023-01-13T00:54:10.588Z,19.48
2023-01-13T00:56:40.761Z,19.42
2023-01-13T00:59:14.399Z,21.17
2023-01-13T01:01:42.862Z,20.48
2023-01-13T01:04:12.197Z,19.55
2023-01-13T01:06:40.505Z,22.15
2023-01-13T01:09:12.833Z,21.83
2023-01-13T01:11:42.052Z,20.00
2023-01-13T01:14:12.428Z,20.42
2023-01-13T01:16:42.096Z,21.42
2023-01-13T01:19:11.066Z,21.85
2023-01-13T01:21:39.326Z,20.55
2023-01-13T01:24:07.842Z,20.63
2023-01-13T01:26:36.064Z,19.25
2023-01-13T01:29:04.372Z,20.33
2023-01-13T01:31:33.751Z,20.35
2023-01-13T01:34:02.908Z,19.17
2023-01-13T01:36:31.691Z,18.27
2023-01-13T01:39:00.471Z,18.83
2023-01-13T01:41:31.715Z,17.85
2023-01-13T01:44:22.150Z,19.13
2023-01-13T01:46:51.952Z,17.98
2023-01-13T01:49:29.864Z,17.65
2023-01-13T01:52:21.062Z,16.98
2023-01-13T01:55:01.420Z,16.27
2023-01-13T01:57:50.485Z,16.85
2023-01-13T02:00:18.924Z,15.48
2023-01-13T02:02:49.225Z,14.43
2023-01-13T02:05:18.246Z,14.77
2023-01-13T02:07:48.873Z,14.75
2023-01-13T02:10:21.063Z,12.82
2023-01-13T02:12:51.573Z,12.35
2023-01-13T02:15:32.307Z,12.48
2023-01-13T02:18:22.455Z,11.40
2023-01-13T02:21:02.655Z,10.25
2023-01-13T02:24:01.294Z,10.32
2023-01-13T02:26:39.698Z,9.93
2023-01-13T02:29:42.433Z,8.48
2023-01-13T02:32:36.137Z,9.63
2023-01-13T02:35:14.776Z,10.65
2023-01-13T02:37:44.787Z,9.75
2023-01-13T02:40:20.736Z,10.13
2023-01-13T02:43:20.850Z,8.60
2023-01-13T02:46:04.915Z,8.70
2023-01-13T02:48:35.533Z,9.23
2023-01-13T02:51:11.581Z,8.85
2023-01-13T02:53:48.312Z,8.85
2023-01-13T02:56:17.590Z,8.65
2023-01-13T02:58:48.824Z,7.95
2023-01-13T03:01:17.767Z,7.32
2023-01-13T03:03:47.020Z,7.88
2023-01-13T03:06:56.462Z,7.32
2023-01-13T03:09:38.728Z,7.10
2023-01-13T03:12:39.781Z,7.70
2023-01-13T03:15:37.182Z,9.15
2023-01-13T03:18:12.335Z,9.27
2023-01-13T03:20:52.745Z,9.80
2023-01-13T03:23:33.239Z,11.30
2023-01-13T03:26:14.240Z,12.25
2023-01-13T03:28:54.229Z,11.32
2023-01-13T03:31:29.776Z,11.30
2023-01-13T03:34:03.627Z,11.98
2023-01-13T03:36:34.388Z,11.38
2023-01-13T03:39:09.490Z,13.02
2023-01-13T03:41:44.430Z,11.40
2023-01-13T03:44:25.291Z,11.13
2023-01-13T03:47:11.927Z,11.57
2023-01-13T03:49:51.739Z,11.20
2023-01-13T03:52:26.567Z,11.20
2023-01-13T03:55:20.891Z,11.10
2023-01-13T03:58:14.306Z,10.00
2023-01-13T04:00:51.851Z,10.18
2023-01-13T04:04:03.690Z,9.70
2023-01-13T04:07:16.183Z,9.73
2023-01-13T04:09:56.669Z,10.27
2023-01-13T04:13:00.055Z,12.05
2023-01-13T04:15:37.342Z,13.75
2023-01-13T04:18:12.881Z,14.38
2023-01-13T04:20:42.501Z,16.02
2023-01-13T04:23:11.378Z,16.02
2023-01-13T04:25:41.200Z,16.05
2023-01-13T04:28:10.601Z,15.45
2023-01-13T04:30:42.464Z,15.90
2023-01-13T04:33:11.590Z,14.13
2023-01-13T04:35:40.449Z,14.10
2023-01-13T04:38:14.984Z,12.63
2023-01-13T04:40:43.930Z,13.98
2023-01-13T04:43:12.611Z,13.63
2023-01-13T04:45:41.223Z,14.45
2023-01-13T04:48:09.880Z,14.07
2023-01-13T04:50:38.083Z,12.88
2023-01-13T04:53:06.415Z,15.40
2023-01-13T04:55:36.510Z,12.88
2023-01-13T04:58:09.902Z,15.43
2023-01-13T05:00:38.591Z,13.82
2023-01-13T05:03:06.873Z,14.45
2023-01-13T05:05:35.306Z,14.93
2023-01-13T05:08:04.080Z,14.40
2023-01-13T05:10:32.303Z,15.93
2023-01-13T05:13:18.899Z,14.95
2023-01-13T05:16:22.562Z,14.40
2023-01-13T05:18:50.914Z,14.25
2023-01-13T05:21:37.876Z,15.25
2023-01-13T05:24:24.713Z,14.57
2023-01-13T05:26:52.925Z,16.77
2023-01-13T05:29:21.089Z,14.93
2023-01-13T05:31:49.292Z,14.65
2023-01-13T05:34:17.441Z,13.93
2023-01-13T05:36:45.713Z,15.45
2023-01-13T05:39:13.928Z,14.45
2023-01-13T05:42:01.101Z,13.50
2023-01-13T05:44:29.363Z,14.00
2023-01-13T05:46:57.616Z,13.00
2023-01-13T05:49:25.732Z,11.82
2023-01-13T05:51:53.867Z,13.02
2023-01-13T05:54:22.184Z,14.45
2023-01-13T05:56:51.513Z,13.85
2023-01-13T05:59:19.674Z,13.85
2023-01-13T06:01:47.844Z,13.90
2023-01-13T06:04:16.009Z,13.43
2023-01-13T06:06:44.801Z,13.77
2023-01-13T06:09:13.118Z,13.27
2023-01-13T06:11:41.264Z,12.50
2023-01-13T06:14:09.643Z,12.95
2023-01-13T06:16:38.704Z,12.20
2023-01-13T06:19:09.082Z,13.15
2023-01-13T06:21:37.489Z,13.40
2023-01-13T06:24:06.939Z,11.95
2023-01-13T06:26:40.689Z,13.02
2023-01-13T06:29:10.178Z,12.55
2023-01-13T06:31:39.969Z,12.63
2023-01-13T06:34:12.932Z,13.55
2023-01-13T06:36:54.034Z,15.88
2023-01-13T06:39:29.149Z,16.25
2023-01-13T06:42:16.902Z,15.93
2023-01-13T06:44:48.193Z,15.52
2023-01-13T06:47:16.805Z,16.05
2023-01-13T06:49:45.041Z,12.55
2023-01-13T06:52:13.258Z,12.55
2023-01-13T06:54:41.475Z,14.88
2023-01-13T06:57:09.760Z,14.68
2023-01-13T06:59:37.981Z,13.63
2023-01-13T07:02:06.656Z,12.13
2023-01-13T07:04:34.952Z,13.05
2023-01-13T07:07:03.222Z,13.55
2023-01-13T07:09:31.423Z,13.02
2023-01-13T07:12:02.491Z,13.27
2023-01-13T07:14:49.432Z,15.45
2023-01-13T07:17:25.158Z,15.25
2023-01-13T07:19:53.605Z,15.43
2023-01-13T07:22:21.910Z,14.55
2023-01-13T07:24:50.328Z,14.32
2023-01-13T07:27:18.579Z,14.90
2023-01-13T07:29:46.812Z,16.75
2023-01-13T07:32:15.634Z,15.40
2023-01-13T07:34:43.821Z,16.00
2023-01-13T07:37:12.003Z,15.35
2023-01-13T07:39:40.133Z,17.42
2023-01-13T07:42:27.752Z,16.58
2023-01-13T07:44:56.100Z,15.75
2023-01-13T07:47:24.580Z,16.40
2023-01-13T07:49:52.928Z,16.65
2023-01-13T07:52:21.074Z,16.00
2023-01-13T07:54:50.173Z,16.55
2023-01-13T07:57:19.126Z,15.55
2023-01-13T07:59:47.375Z,15.27
2023-01-13T08:02:18.885Z,14.93
2023-01-13T08:04:47.232Z,15.15
2023-01-13T08:07:15.464Z,15.05
2023-01-13T08:09:43.657Z,15.45
2023-01-13T08:12:30.591Z,16.33
2023-01-13T08:14:58.774Z,16.13
2023-01-13T08:17:27.210Z,15.90
2023-01-13T08:19:55.394Z,15.45
2023-01-13T08:22:23.811Z,15.85
2023-01-13T08:24:52.068Z,15.82
2023-01-13T08:27:20.534Z,14.98
2023-01-13T08:29:48.678Z,16.35
2023-01-13T08:32:16.930Z,15.57
2023-01-13T08:34:45.059Z,17.10
2023-01-13T08:37:16.037Z,17.42
2023-01-13T08:39:44.232Z,17.20
2023-01-13T08:42:12.520Z,15.77
2023-01-13T08:44:40.698Z,16.20
2023-01-13T08:47:08.995Z,16.30
2023-01-13T08:49:37.242Z,17.65
2023-01-13T08:52:05.749Z,16.65
2023-01-13T08:54:33.868Z,16.00
2023-01-13T08:57:03.418Z,15.77
2023-01-13T08:59:31.962Z,15.00
2023-01-13T09:02:00.618Z,17.17
2023-01-13T09:04:30.622Z,17.27
2023-01-13T09:06:58.867Z,18.67
2023-01-13T09:09:27.819Z,17.50
2023-01-13T09:12:14.775Z,16.60
2023-01-13T09:14:42.979Z,17.52
2023-01-13T09:17:11.303Z,16.50
2023-01-13T09:19:39.623Z,18.55
2023-01-13T09:22:07.986Z,16.13
2023-01-13T09:24:36.185Z,14.93
2023-01-13T09:27:04.493Z,15.13
2023-01-13T09:29:32.732Z,14.50
2023-01-13T09:32:01.017Z,12.88
2023-01-13T09:34:47.717Z,14.10
2023-01-13T09:37:16.051Z,13.18
2023-01-13T09:39:44.287Z,13.50
2023-01-13T09:42:37.137Z,14.80
2023-01-13T09:45:19.104Z,13.57
2023-01-13T09:48:05.340Z,13.23
2023-01-13T09:50:45.738Z,12.80
2023-01-13T09:53:29.057Z,12.50
2023-01-13T09:55:57.477Z,11.32
2023-01-13T09:58:26.038Z,13.52
2023-01-13T10:01:11.883Z,13.38
2023-01-13T10:03:43.269Z,14.68
2023-01-13T10:06:38.782Z,13.60
2023-01-13T10:09:12.683Z,12.70
2023-01-13T10:12:02.821Z,12.55
2023-01-13T10:14:54.959Z,13.20
2023-01-13T10:17:47.337Z,13.00
2023-01-13T10:20:52.457Z,12.07
2023-01-13T10:23:40.186Z,12.70
2023-01-13T10:26:27.367Z,13.43
2023-01-13T10:28:57.484Z,11.30
2023-01-13T10:31:26.591Z,12.15
2023-01-13T10:34:04.205Z,12.77
2023-01-13T10:36:32.568Z,11.98
2023-01-13T10:39:17.064Z,13.82
2023-01-13T10:41:45.749Z,12.07
2023-01-13T10:44:19.091Z,13.00
2023-01-13T10:46:55.671Z,11.43
2023-01-13T10:49:32.743Z,11.25
2023-01-13T10:52:02.873Z,12.73
2023-01-13T10:54:31.260Z,13.13
2023-01-13T10:57:18.845Z,13.95
2023-01-13T10:59:47.898Z,15.23
2023-01-13T11:02:29.958Z,14.55
2023-01-13T11:05:03.324Z,12.73
2023-01-13T11:07:36.552Z,14.77
2023-01-13T11:10:20.344Z,14.50
2023-01-13T11:12:59.033Z,17.27
2023-01-13T11:15:46.888Z,18.85
2023-01-13T11:18:40.200Z,19.42
2023-01-13T11:21:46.819Z,20.25
2023-01-13T11:24:54.160Z,17.77
2023-01-13T11:27:55.656Z,16.73
2023-01-13T11:30:33.853Z,19.48
2023-01-13T11:33:17.020Z,18.17
2023-01-13T11:36:16.748Z,16.77
2023-01-13T11:38:55.836Z,17.13
2023-01-13T11:41:44.512Z,18.27
2023-01-13T11:44:36.776Z,18.30
2023-01-13T11:47:05.084Z,17.20
2023-01-13T11:49:34.350Z,18.15
2023-01-13T11:52:16.569Z,17.88
2023-01-13T11:55:16.878Z,17.58
2023-01-13T11:58:01.316Z,18.88
2023-01-13T12:00:59.329Z,20.90
2023-01-13T12:03:27.925Z,19.10
2023-01-13T12:06:08.461Z,17.55
2023-01-13T12:08:59.397Z,18.63
2023-01-13T12:11:31.186Z,18.52
2023-01-13T12:14:24.089Z,17.98
2023-01-13T12:16:52.393Z,18.10
2023-01-13T12:19:30.236Z,16.83
2023-01-13T12:22:13.268Z,16.17
2023-01-13T12:24:46.423Z,17.27
2023-01-13T12:27:57.790Z,17.25
2023-01-13T12:30:50.711Z,18.30
2023-01-13T12:33:48.118Z,17.73
2023-01-13T12:36:29.595Z,18.83
2023-01-13T12:39:23.392Z,16.15
2023-01-13T12:42:17.498Z,17.35
2023-01-13T12:45:10.569Z,18.08
2023-01-13T12:47:46.375Z,16.50
2023-01-13T12:50:26.603Z,17.33
2023-01-13T12:53:15.900Z,16.55
2023-01-13T12:55:44.208Z,16.90
2023-01-13T12:58:15.441Z,17.02
2023-01-13T13:00:45.283Z,17.70
2023-01-13T13:03:19.779Z,17.55
2023-01-13T13:06:09.146Z,17.38
2023-01-13T13:08:50.536Z,18.42
2023-01-13T13:11:59.955Z,18.67
2023-01-13T13:14:40.536Z,17.42
2023-01-13T13:17:30.023Z,17.25
2023-01-13T13:19:59.725Z,17.38
2023-01-13T13:22:27.935Z,17.80
2023-01-13T13:24:56.226Z,16.40
2023-01-13T13:27:44.497Z,16.70
2023-01-13T13:30:21.757Z,14.95
2023-01-13T13:33:24.003Z,16.77
2023-01-13T13:36:07.328Z,16.55
2023-01-13T13:39:06.119Z,16.15
2023-01-13T13:41:54.700Z,17.05
2023-01-13T13:45:04.481Z,17.35
2023-01-13T13:47:39.680Z,15.90
2023-01-13T13:50:23.736Z,16.40
2023-01-13T13:52:58.810Z,15.73
2023-01-13T13:55:29.142Z,15.80
2023-01-13T13:57:59.168Z,15.73
2023-01-13T14:00:35.998Z,15.63
2023-01-13T14:03:08.095Z,15.82
2023-01-13T14:05:37.451Z,15.57
2023-01-13T14:08:17.762Z,16.73
2023-01-13T14:10:46.812Z,17.88
2023-01-13T14:13:27.145Z,18.50
2023-01-13T14:16:04.463Z,18.63
2023-01-13T14:18:48.667Z,18.85
2023-01-13T14:21:24.141Z,18.33
2023-01-13T14:24:13.710Z,17.20
2023-01-13T14:26:42.030Z,14.25
2023-01-13T14:29:18.473Z,16.52
2023-01-13T14:31:48.680Z,13.65
2023-01-13T14:34:32.633Z,14.50
2023-01-13T14:37:03.133Z,14.43
2023-01-13T14:39:38.909Z,15.77
2023-01-13T14:42:14.099Z,15.57
2023-01-13T14:44:46.264Z,15.82
2023-01-13T14:47:32.303Z,15.45
2023-01-13T14:50:27.765Z,15.95
2023-01-13T14:52:57.286Z,16.63
2023-01-13T14:55:32.081Z,19.25
2023-01-13T14:58:22.031Z,18.15
2023-01-13T15:00:51.961Z,17.63
2023-01-13T15:03:21.772Z,16.52
2023-01-13T15:05:52.927Z,17.35
2023-01-13T15:08:33.452Z,16.92
2023-01-13T15:11:08.098Z,17.00
2023-01-13T15:13:44.988Z,16.33
2023-01-13T15:16:26.393Z,15.48
2023-01-13T15:18:56.209Z,16.88
2023-01-13T15:21:25.098Z,16.92
2023-01-13T15:23:53.428Z,17.45
2023-01-13T15:26:24.872Z,16.88
2023-01-13T15:28:55.540Z,17.83
2023-01-13T15:31:24.612Z,17.40
2023-01-13T15:33:53.034Z,17.48
2023-01-13T15:36:27.658Z,18.08
2023-01-13T15:38:56.988Z,17.52
2023-01-13T15:41:44.247Z,18.42
2023-01-13T15:44:32.437Z,18.23
2023-01-13T15:47:06.075Z,20.25
2023-01-13T15:49:36.418Z,19.38
2023-01-13T15:52:22.851Z,20.02
2023-01-13T15:54:52.576Z,19.90
2023-01-13T15:57:27.886Z,19.58
2023-01-13T15:59:58.953Z,19.80
2023-01-13T16:02:29.349Z,24.70
2023-01-13T16:04:58.007Z,23.25
2023-01-13T16:07:26.637Z,19.63
2023-01-13T16:09:55.070Z,19.45
2023-01-13T16:12:23.385Z,20.40
2023-01-13T16:14:51.683Z,22.08
2023-01-13T16:17:23.347Z,22.67
2023-01-13T16:19:51.928Z,22.27
2023-01-13T16:22:20.198Z,22.13
2023-01-13T16:24:48.733Z,24.38
2023-01-13T16:27:22.472Z,21.85
2023-01-13T16:29:52.100Z,19.80
2023-01-13T16:32:21.061Z,19.33
2023-01-13T16:34:50.130Z,20.92
2023-01-13T16:37:23.861Z,19.40
2023-01-13T16:39:53.035Z,20.00
2023-01-13T16:42:21.802Z,19.58
2023-01-13T16:44:50.856Z,20.50
2023-01-13T16:47:19.343Z,21.98
2023-01-13T16:49:47.886Z,22.33
2023-01-13T16:52:16.111Z,20.27
2023-01-13T16:54:49.152Z,19.42
2023-01-13T16:57:24.380Z,21.33
2023-01-13T16:59:52.615Z,22.10
2023-01-13T17:02:21.167Z,24.48
2023-01-13T17:04:49.504Z,25.85
2023-01-13T17:07:18.303Z,28.02
2023-01-13T17:09:46.766Z,23.63
2023-01-13T17:12:15.053Z,25.52
2023-01-13T17:14:43.521Z,25.02
2023-01-13T17:17:23.829Z,24.15
2023-01-13T17:19:53.039Z,23.58
2023-01-13T17:22:22.053Z,20.77
2023-01-13T17:24:50.293Z,20.85
2023-01-13T17:27:18.778Z,20.80
2023-01-13T17:29:47.928Z,21.38
2023-01-13T17:32:20.894Z,20.90
2023-01-13T17:34:50.259Z,19.77
2023-01-13T17:37:18.945Z,22.13
2023-01-13T17:39:48.695Z,20.85
2023-01-13T17:42:17.039Z,19.02
2023-01-13T17:44:46.792Z,20.02
2023-01-13T17:47:15.543Z,19.67
2023-01-13T17:49:43.785Z,19.08
2023-01-13T17:52:12.045Z,21.98
2023-01-13T17:54:43.845Z,20.42
2023-01-13T17:57:12.373Z,19.23
2023-01-13T17:59:41.780Z,18.52
2023-01-13T18:02:12.491Z,18.80
2023-01-13T18:04:42.310Z,19.33
2023-01-13T18:07:10.515Z,20.42
2023-01-13T18:09:38.806Z,19.45
2023-01-13T18:12:07.126Z,21.10
2023-01-13T18:14:35.649Z,21.63
2023-01-13T18:17:03.868Z,19.83
2023-01-13T18:19:50.848Z,24.17
2023-01-13T18:22:37.932Z,24.27
2023-01-13T18:25:29.854Z,26.25
2023-01-13T18:28:01.320Z,25.05
2023-01-13T18:30:29.570Z,25.73
2023-01-13T18:32:58.160Z,23.95
2023-01-13T18:35:26.589Z,25.63
2023-01-13T18:37:54.748Z,25.23
2023-01-13T18:40:22.950Z,25.13
2023-01-13T18:42:51.341Z,22.55
2023-01-13T18:45:26.051Z,23.08
2023-01-13T18:47:56.185Z,24.63
2023-01-13T18:50:25.470Z,25.23
2023-01-13T18:52:54.332Z,28.25
2023-01-13T18:55:22.945Z,26.17
2023-01-13T18:57:52.044Z,25.35
2023-01-13T19:00:22.199Z,25.42
2023-01-13T19:05:36.270Z,28.13
2023-01-13T19:08:05.029Z,27.00
2023-01-13T19:10:33.372Z,28.27
2023-01-13T19:13:01.883Z,25.45
2023-01-13T19:15:35.864Z,23.95
2023-01-13T19:18:04.278Z,25.20
2023-01-13T19:20:32.586Z,24.48
2023-01-13T19:23:00.861Z,24.77
2023-01-13T19:25:29.255Z,24.45
2023-01-13T19:27:57.503Z,24.25
2023-01-13T19:30:25.746Z,24.23
2023-01-13T19:32:56.220Z,23.80
2023-01-13T19:35:24.447Z,23.05
2023-01-13T19:37:53.962Z,25.70
2023-01-13T19:40:22.440Z,25.33
2023-01-13T19:43:08.994Z,26.48
2023-01-13T19:45:37.214Z,27.48
2023-01-13T19:48:07.321Z,25.48
2023-01-13T19:50:39.933Z,25.52
2023-01-13T19:53:14.846Z,25.33
2023-01-13T19:55:48.633Z,24.02
2023-01-13T19:58:20.251Z,23.85
2023-01-13T20:00:48.713Z,24.38
2023-01-13T20:03:25.922Z,25.40
2023-01-13T20:05:54.922Z,24.23
2023-01-13T20:08:23.527Z,23.45
2023-01-13T20:11:11.729Z,24.48
2023-01-13T20:13:42.675Z,25.27
2023-01-13T20:16:10.985Z,25.40
2023-01-13T20:18:39.349Z,23.92
2023-01-13T20:21:08.075Z,22.38
2023-01-13T20:23:36.811Z,23.85
2023-01-13T20:26:08.618Z,21.15
2023-01-13T20:28:39.423Z,22.63
2023-01-13T20:31:09.761Z,22.40
2023-01-13T20:33:41.330Z,25.48
2023-01-13T20:36:22.693Z,27.10
2023-01-13T20:38:51.478Z,28.25
2023-01-13T20:41:38.783Z,28.70
2023-01-13T20:44:11.739Z,24.60
2023-01-13T20:46:43.252Z,23.75
2023-01-13T20:49:13.268Z,21.00
2023-01-13T20:51:43.091Z,21.60
2023-01-13T20:54:11.478Z,18.67
2023-01-13T20:56:40.872Z,19.17
2023-01-13T20:59:12.463Z,18.60
2023-01-13T21:01:41.351Z,18.52
2023-01-13T21:04:11.706Z,20.20
2023-01-13T21:06:41.965Z,18.67
2023-01-13T21:09:10.334Z,19.10
2023-01-13T21:11:57.311Z,18.13
2023-01-13T21:14:45.550Z,17.45
2023-01-13T21:17:34.446Z,18.58
2023-01-13T21:20:10.027Z,17.42
2023-01-13T21:22:39.078Z,16.17
2023-01-13T21:25:07.753Z,18.00
2023-01-13T21:27:39.305Z,20.05
2023-01-13T21:30:08.267Z,18.60
2023-01-13T21:32:36.463Z,20.70
2023-01-13T21:35:05.487Z,19.65
2023-01-13T21:37:38.351Z,19.63
2023-01-13T21:40:10.246Z,20.73
2023-01-13T21:42:57.329Z,20.35
2023-01-13T21:45:44.270Z,18.73
2023-01-13T21:48:12.632Z,21.00
2023-01-13T21:50:41.237Z,20.30
2023-01-13T21:53:09.641Z,20.75
2023-01-13T21:55:37.908Z,20.77
2023-01-13T21:58:14.385Z,20.13
2023-01-13T22:00:44.475Z,20.35
2023-01-13T22:03:17.255Z,20.95
2023-01-13T22:05:46.247Z,20.13
2023-01-13T22:08:14.621Z,19.95
2023-01-13T22:10:58.039Z,19.50
2023-01-13T22:13:46.239Z,20.25
2023-01-13T22:16:15.851Z,22.05
2023-01-13T22:18:44.136Z,19.95
2023-01-13T22:21:12.621Z,26.92
2023-01-13T22:23:40.865Z,31.08
2023-01-13T22:26:09.931Z,29.27
2023-01-13T22:28:46.624Z,26.73
2023-01-13T22:31:17.563Z,25.67
2023-01-13T22:33:47.189Z,23.05
2023-01-13T22:36:16.286Z,21.50
2023-01-13T22:38:44.675Z,20.77
2023-01-13T22:41:12.862Z,19.42
2023-01-13T22:43:41.881Z,18.65
2023-01-13T22:46:12.215Z,19.10
2023-01-13T22:48:41.422Z,19.70
2023-01-13T22:51:13.203Z,19.95
2023-01-13T22:53:42.551Z,19.83
2023-01-13T22:56:17.738Z,22.38
2023-01-13T22:58:46.354Z,19.35
2023-01-13T23:01:17.294Z,20.10
2023-01-13T23:03:48.217Z,20.60
2023-01-13T23:06:18.316Z,18.98
2023-01-13T23:08:47.480Z,19.65
2023-01-13T23:11:17.909Z,20.23
2023-01-13T23:13:46.374Z,19.63
2023-01-13T23:16:21.254Z,20.48
2023-01-13T23:18:50.087Z,20.75
2023-01-13T23:21:21.482Z,21.05
2023-01-13T23:23:49.863Z,22.20
2023-01-13T23:26:18.134Z,20.23
2023-01-13T23:28:48.695Z,19.00
2023-01-13T23:31:19.423Z,18.75
2023-01-13T23:33:48.544Z,18.23
2023-01-13T23:36:22.682Z,20.20
2023-01-13T23:38:51.841Z,19.13
2023-01-13T23:41:22.967Z,18.70
2023-01-13T23:43:53.090Z,19.08
2023-01-13T23:46:22.966Z,17.85
2023-01-13T23:48:51.716Z,17.80
2023-01-13T23:51:23.390Z,20.02
2023-01-13T23:53:52.168Z,16.75
2023-01-13T23:56:23.292Z,17.35
2023-01-13T23:58:51.977Z,17.25
